sensor_id;sensor_type;location;lat;lon;timestamp;P1;durP1;ratioP1;P2;durP2;ratioP2
63112;SDS011;49206;48.020;21.378;2024-03-07T00:00:47;10.50;;;7.88;;
63112;SDS011;49206;48.020;21.378;2024-03-07T00:01:50;9.90;;;7.45;;
63112;SDS011;49206;48.020;21.378;2024-03-07T00:02:53;9.95;;;6.88;;
63112;SDS011;49206;48.020;21.378;2024-03-07T00:03:58;11.40;;;7.50;;
63112;SDS011;49206;48.020;21.378;2024-03-07T00:05:01;10.45;;;7.25;;
63112;SDS011;49206;48.020;21.378;2024-03-07T00:06:03;10.60;;;7.63;;
63112;SDS011;49206;48.020;21.378;2024-03-07T00:07:06;11.02;;;7.45;;
63112;SDS011;49206;48.020;21.378;2024-03-07T00:08:09;10.73;;;8.13;;
63112;SDS011;49206;48.020;21.378;2024-03-07T00:10:35;11.07;;;7.55;;
63112;SDS011;49206;48.020;21.378;2024-03-07T00:11:38;11.32;;;7.25;;
63112;SDS011;49206;48.020;21.378;2024-03-07T00:12:43;10.38;;;7.22;;
63112;SDS011;49206;48.020;21.378;2024-03-07T00:13:46;10.40;;;7.32;;
63112;SDS011;49206;48.020;21.378;2024-03-07T00:14:49;8.73;;;6.82;;
63112;SDS011;49206;48.020;21.378;2024-03-07T00:15:51;8.38;;;6.25;;
63112;SDS011;49206;48.020;21.378;2024-03-07T00:16:58;10.43;;;7.30;;
63112;SDS011;49206;48.020;21.378;2024-03-07T00:18:05;11.88;;;7.88;;
63112;SDS011;49206;48.020;21.378;2024-03-07T00:19:08;11.15;;;7.90;;
63112;SDS011;49206;48.020;21.378;2024-03-07T00:20:11;11.13;;;8.02;;
63112;SDS011;49206;48.020;21.378;2024-03-07T00:21:17;9.68;;;7.20;;
63112;SDS011;49206;48.020;21.378;2024-03-07T00:22:20;9.70;;;7.55;;
63112;SDS011;49206;48.020;21.378;2024-03-07T00:23:23;9.95;;;7.13;;
63112;SDS011;49206;48.020;21.378;2024-03-07T00:24:26;10.18;;;8.07;;
63112;SDS011;49206;48.020;21.378;2024-03-07T00:25:31;11.35;;;7.78;;
63112;SDS011;49206;48.020;21.378;2024-03-07T00:26:34;10.90;;;7.70;;
63112;SDS011;49206;48.020;21.378;2024-03-07T00:27:37;10.90;;;7.63;;
63112;SDS011;49206;48.020;21.378;2024-03-07T00:28:40;12.82;;;8.00;;
63112;SDS011;49206;48.020;21.378;2024-03-07T00:29:43;10.18;;;7.18;;
63112;SDS011;49206;48.020;21.378;2024-03-07T00:30:48;8.68;;;6.97;;
63112;SDS011;49206;48.020;21.378;2024-03-07T00:31:51;11.15;;;7.60;;
63112;SDS011;49206;48.020;21.378;2024-03-07T00:32:54;9.48;;;6.80;;
63112;SDS011;49206;48.020;21.378;2024-03-07T00:33:57;10.02;;;7.75;;
63112;SDS011;49206;48.020;21.378;2024-03-07T00:35:14;10.98;;;7.72;;
63112;SDS011;49206;48.020;21.378;2024-03-07T00:36:17;11.00;;;7.75;;
63112;SDS011;49206;48.020;21.378;2024-03-07T00:37:20;9.70;;;6.80;;
63112;SDS011;49206;48.020;21.378;2024-03-07T00:38:23;10.73;;;7.32;;
63112;SDS011;49206;48.020;21.378;2024-03-07T00:39:26;10.70;;;7.80;;
63112;SDS011;49206;48.020;21.378;2024-03-07T00:40:28;10.30;;;7.35;;
63112;SDS011;49206;48.020;21.378;2024-03-07T00:41:31;8.82;;;6.78;;
63112;SDS011;49206;48.020;21.378;2024-03-07T00:42:34;9.27;;;6.68;;
63112;SDS011;49206;48.020;21.378;2024-03-07T00:43:37;11.93;;;8.00;;
63112;SDS011;49206;48.020;21.378;2024-03-07T00:44:40;10.10;;;7.47;;
63112;SDS011;49206;48.020;21.378;2024-03-07T00:45:43;8.85;;;7.40;;
63112;SDS011;49206;48.020;21.378;2024-03-07T00:46:46;9.68;;;7.93;;
63112;SDS011;49206;48.020;21.378;2024-03-07T00:47:48;11.13;;;7.47;;
63112;SDS011;49206;48.020;21.378;2024-03-07T00:48:51;9.18;;;7.53;;
63112;SDS011;49206;48.020;21.378;2024-03-07T00:49:53;10.20;;;7.60;;
63112;SDS011;49206;48.020;21.378;2024-03-07T00:50:56;12.25;;;8.45;;
63112;SDS011;49206;48.020;21.378;2024-03-07T00:51:59;10.85;;;7.97;;
63112;SDS011;49206;48.020;21.378;2024-03-07T00:53:02;11.50;;;7.43;;
63112;SDS011;49206;48.020;21.378;2024-03-07T00:54:05;10.88;;;7.70;;
63112;SDS011;49206;48.020;21.378;2024-03-07T00:55:09;9.70;;;7.30;;
63112;SDS011;49206;48.020;21.378;2024-03-07T00:56:11;9.80;;;7.15;;
63112;SDS011;49206;48.020;21.378;2024-03-07T00:57:14;8.93;;;7.03;;
63112;SDS011;49206;48.020;21.378;2024-03-07T00:58:16;10.27;;;7.80;;
63112;SDS011;49206;48.020;21.378;2024-03-07T00:59:19;10.05;;;7.60;;
63112;SDS011;49206;48.020;21.378;2024-03-07T01:00:23;9.75;;;6.78;;
63112;SDS011;49206;48.020;21.378;2024-03-07T01:01:25;9.73;;;6.72;;
63112;SDS011;49206;48.020;21.378;2024-03-07T01:02:28;9.35;;;7.03;;
63112;SDS011;49206;48.020;21.378;2024-03-07T01:03:32;9.82;;;7.30;;
63112;SDS011;49206;48.020;21.378;2024-03-07T01:04:34;9.57;;;7.25;;
63112;SDS011;49206;48.020;21.378;2024-03-07T01:05:37;10.02;;;7.18;;
63112;SDS011;49206;48.020;21.378;2024-03-07T01:06:40;10.20;;;7.53;;
63112;SDS011;49206;48.020;21.378;2024-03-07T01:07:43;8.90;;;6.55;;
63112;SDS011;49206;48.020;21.378;2024-03-07T01:08:48;9.48;;;7.60;;
63112;SDS011;49206;48.020;21.378;2024-03-07T01:09:51;10.20;;;7.60;;
63112;SDS011;49206;48.020;21.378;2024-03-07T01:10:54;9.35;;;7.10;;
63112;SDS011;49206;48.020;21.378;2024-03-07T01:11:56;10.70;;;7.82;;
63112;SDS011;49206;48.020;21.378;2024-03-07T01:13:02;10.77;;;7.70;;
63112;SDS011;49206;48.020;21.378;2024-03-07T01:14:07;9.80;;;6.97;;
63112;SDS011;49206;48.020;21.378;2024-03-07T01:15:10;9.95;;;7.25;;
63112;SDS011;49206;48.020;21.378;2024-03-07T01:16:14;9.57;;;6.97;;
63112;SDS011;49206;48.020;21.378;2024-03-07T01:17:17;9.52;;;7.25;;
63112;SDS011;49206;48.020;21.378;2024-03-07T01:18:20;9.60;;;7.03;;
63112;SDS011;49206;48.020;21.378;2024-03-07T01:19:22;9.07;;;6.55;;
63112;SDS011;49206;48.020;21.378;2024-03-07T01:20:26;8.88;;;6.50;;
63112;SDS011;49206;48.020;21.378;2024-03-07T01:21:29;9.80;;;6.63;;
63112;SDS011;49206;48.020;21.378;2024-03-07T01:22:34;7.85;;;6.57;;
63112;SDS011;49206;48.020;21.378;2024-03-07T01:23:37;9.50;;;6.65;;
63112;SDS011;49206;48.020;21.378;2024-03-07T01:24:40;9.52;;;7.10;;
63112;SDS011;49206;48.020;21.378;2024-03-07T01:25:43;9.85;;;7.07;;
63112;SDS011;49206;48.020;21.378;2024-03-07T01:26:45;8.57;;;6.80;;
63112;SDS011;49206;48.020;21.378;2024-03-07T01:27:49;12.23;;;7.88;;
63112;SDS011;49206;48.020;21.378;2024-03-07T01:28:54;9.23;;;7.30;;
63112;SDS011;49206;48.020;21.378;2024-03-07T01:29:57;9.98;;;6.97;;
63112;SDS011;49206;48.020;21.378;2024-03-07T01:31:00;8.73;;;6.82;;
63112;SDS011;49206;48.020;21.378;2024-03-07T01:32:02;8.73;;;6.90;;
63112;SDS011;49206;48.020;21.378;2024-03-07T01:33:05;8.95;;;7.43;;
63112;SDS011;49206;48.020;21.378;2024-03-07T01:34:08;10.30;;;7.28;;
63112;SDS011;49206;48.020;21.378;2024-03-07T01:35:10;10.32;;;7.15;;
63112;SDS011;49206;48.020;21.378;2024-03-07T01:36:14;10.82;;;7.80;;
63112;SDS011;49206;48.020;21.378;2024-03-07T01:37:17;10.10;;;6.57;;
63112;SDS011;49206;48.020;21.378;2024-03-07T01:38:20;7.93;;;6.60;;
63112;SDS011;49206;48.020;21.378;2024-03-07T01:39:23;7.95;;;6.22;;
63112;SDS011;49206;48.020;21.378;2024-03-07T01:40:26;9.05;;;7.15;;
63112;SDS011;49206;48.020;21.378;2024-03-07T01:41:28;9.02;;;6.65;;
63112;SDS011;49206;48.020;21.378;2024-03-07T01:42:31;7.88;;;6.50;;
63112;SDS011;49206;48.020;21.378;2024-03-07T01:43:34;8.77;;;6.47;;
63112;SDS011;49206;48.020;21.378;2024-03-07T01:44:37;9.18;;;6.88;;
63112;SDS011;49206;48.020;21.378;2024-03-07T01:45:42;9.57;;;6.53;;
63112;SDS011;49206;48.020;21.378;2024-03-07T01:46:46;9.88;;;6.90;;
63112;SDS011;49206;48.020;21.378;2024-03-07T01:47:52;9.02;;;6.93;;
63112;SDS011;49206;48.020;21.378;2024-03-07T01:48:55;8.52;;;6.47;;
63112;SDS011;49206;48.020;21.378;2024-03-07T01:49:58;10.75;;;7.53;;
63112;SDS011;49206;48.020;21.378;2024-03-07T01:51:01;8.82;;;6.35;;
63112;SDS011;49206;48.020;21.378;2024-03-07T01:52:07;9.25;;;6.57;;
63112;SDS011;49206;48.020;21.378;2024-03-07T01:53:11;8.98;;;6.65;;
63112;SDS011;49206;48.020;21.378;2024-03-07T01:54:14;9.40;;;6.57;;
63112;SDS011;49206;48.020;21.378;2024-03-07T01:55:17;10.32;;;7.60;;
63112;SDS011;49206;48.020;21.378;2024-03-07T01:56:21;8.85;;;6.00;;
63112;SDS011;49206;48.020;21.378;2024-03-07T01:57:24;9.90;;;6.85;;
63112;SDS011;49206;48.020;21.378;2024-03-07T01:58:27;9.27;;;6.50;;
63112;SDS011;49206;48.020;21.378;2024-03-07T01:59:32;6.35;;;5.60;;
63112;SDS011;49206;48.020;21.378;2024-03-07T02:00:35;8.50;;;6.07;;
63112;SDS011;49206;48.020;21.378;2024-03-07T02:01:38;7.95;;;6.28;;
63112;SDS011;49206;48.020;21.378;2024-03-07T02:02:42;9.48;;;6.30;;
63112;SDS011;49206;48.020;21.378;2024-03-07T02:03:45;7.85;;;6.20;;
63112;SDS011;49206;48.020;21.378;2024-03-07T02:04:48;8.52;;;5.88;;
63112;SDS011;49206;48.020;21.378;2024-03-07T02:05:51;7.90;;;6.60;;
63112;SDS011;49206;48.020;21.378;2024-03-07T02:06:54;9.00;;;6.32;;
63112;SDS011;49206;48.020;21.378;2024-03-07T02:07:58;8.93;;;6.65;;
63112;SDS011;49206;48.020;21.378;2024-03-07T02:09:01;7.20;;;5.40;;
63112;SDS011;49206;48.020;21.378;2024-03-07T02:10:05;8.52;;;6.55;;
63112;SDS011;49206;48.020;21.378;2024-03-07T02:11:08;7.50;;;6.70;;
63112;SDS011;49206;48.020;21.378;2024-03-07T02:12:12;7.65;;;6.18;;
63112;SDS011;49206;48.020;21.378;2024-03-07T02:13:15;8.07;;;6.22;;
63112;SDS011;49206;48.020;21.378;2024-03-07T02:14:18;8.15;;;6.38;;
63112;SDS011;49206;48.020;21.378;2024-03-07T02:15:21;7.32;;;5.72;;
63112;SDS011;49206;48.020;21.378;2024-03-07T02:16:24;8.10;;;5.63;;
63112;SDS011;49206;48.020;21.378;2024-03-07T02:17:28;8.95;;;6.57;;
63112;SDS011;49206;48.020;21.378;2024-03-07T02:18:31;8.63;;;6.25;;
63112;SDS011;49206;48.020;21.378;2024-03-07T02:19:34;7.50;;;6.25;;
63112;SDS011;49206;48.020;21.378;2024-03-07T02:20:37;9.00;;;6.05;;
63112;SDS011;49206;48.020;21.378;2024-03-07T02:21:39;6.82;;;5.57;;
63112;SDS011;49206;48.020;21.378;2024-03-07T02:22:42;8.88;;;6.63;;
63112;SDS011;49206;48.020;21.378;2024-03-07T02:23:45;7.53;;;5.28;;
63112;SDS011;49206;48.020;21.378;2024-03-07T02:24:48;7.60;;;5.40;;
63112;SDS011;49206;48.020;21.378;2024-03-07T02:25:51;7.78;;;6.18;;
63112;SDS011;49206;48.020;21.378;2024-03-07T02:26:54;7.18;;;6.00;;
63112;SDS011;49206;48.020;21.378;2024-03-07T02:27:57;7.55;;;6.07;;
63112;SDS011;49206;48.020;21.378;2024-03-07T02:29:00;7.32;;;5.35;;
63112;SDS011;49206;48.020;21.378;2024-03-07T02:30:03;7.13;;;5.85;;
63112;SDS011;49206;48.020;21.378;2024-03-07T02:31:07;8.25;;;5.95;;
63112;SDS011;49206;48.020;21.378;2024-03-07T02:32:10;9.60;;;6.30;;
63112;SDS011;49206;48.020;21.378;2024-03-07T02:33:14;7.90;;;5.78;;
63112;SDS011;49206;48.020;21.378;2024-03-07T02:34:17;6.80;;;5.47;;
63112;SDS011;49206;48.020;21.378;2024-03-07T02:35:20;6.07;;;5.20;;
63112;SDS011;49206;48.020;21.378;2024-03-07T02:36:23;7.70;;;5.78;;
63112;SDS011;49206;48.020;21.378;2024-03-07T02:37:27;8.57;;;6.20;;
63112;SDS011;49206;48.020;21.378;2024-03-07T02:38:30;7.32;;;5.82;;
63112;SDS011;49206;48.020;21.378;2024-03-07T02:39:32;7.03;;;6.15;;
63112;SDS011;49206;48.020;21.378;2024-03-07T02:40:35;7.10;;;5.50;;
63112;SDS011;49206;48.020;21.378;2024-03-07T02:41:37;7.10;;;5.35;;
63112;SDS011;49206;48.020;21.378;2024-03-07T02:42:41;8.00;;;5.07;;
63112;SDS011;49206;48.020;21.378;2024-03-07T02:43:43;6.35;;;4.90;;
63112;SDS011;49206;48.020;21.378;2024-03-07T02:44:46;7.82;;;5.60;;
63112;SDS011;49206;48.020;21.378;2024-03-07T02:45:49;6.95;;;6.00;;
63112;SDS011;49206;48.020;21.378;2024-03-07T02:46:52;7.85;;;6.20;;
63112;SDS011;49206;48.020;21.378;2024-03-07T02:47:56;8.02;;;5.43;;
63112;SDS011;49206;48.020;21.378;2024-03-07T02:48:59;7.07;;;5.30;;
63112;SDS011;49206;48.020;21.378;2024-03-07T02:50:03;8.27;;;5.25;;
63112;SDS011;49206;48.020;21.378;2024-03-07T02:51:06;6.43;;;5.13;;
63112;SDS011;49206;48.020;21.378;2024-03-07T02:52:09;7.00;;;5.55;;
63112;SDS011;49206;48.020;21.378;2024-03-07T02:53:12;8.00;;;5.20;;
63112;SDS011;49206;48.020;21.378;2024-03-07T02:54:15;10.85;;;6.50;;
63112;SDS011;49206;48.020;21.378;2024-03-07T02:55:18;10.32;;;5.82;;
63112;SDS011;49206;48.020;21.378;2024-03-07T02:56:21;6.80;;;5.68;;
63112;SDS011;49206;48.020;21.378;2024-03-07T02:57:24;12.50;;;5.90;;
63112;SDS011;49206;48.020;21.378;2024-03-07T02:58:26;6.88;;;5.47;;
63112;SDS011;49206;48.020;21.378;2024-03-07T02:59:29;7.63;;;5.72;;
63112;SDS011;49206;48.020;21.378;2024-03-07T03:00:32;7.32;;;5.78;;
63112;SDS011;49206;48.020;21.378;2024-03-07T03:01:37;9.00;;;6.28;;
63112;SDS011;49206;48.020;21.378;2024-03-07T03:02:40;7.90;;;6.22;;
63112;SDS011;49206;48.020;21.378;2024-03-07T03:03:43;7.72;;;5.88;;
63112;SDS011;49206;48.020;21.378;2024-03-07T03:04:46;7.43;;;5.38;;
63112;SDS011;49206;48.020;21.378;2024-03-07T03:05:49;8.07;;;5.88;;
63112;SDS011;49206;48.020;21.378;2024-03-07T03:06:53;9.32;;;6.07;;
63112;SDS011;49206;48.020;21.378;2024-03-07T03:07:55;7.25;;;5.47;;
63112;SDS011;49206;48.020;21.378;2024-03-07T03:08:58;7.60;;;5.45;;
63112;SDS011;49206;48.020;21.378;2024-03-07T03:10:01;9.88;;;6.07;;
63112;SDS011;49206;48.020;21.378;2024-03-07T03:11:10;8.10;;;5.63;;
63112;SDS011;49206;48.020;21.378;2024-03-07T03:12:16;8.07;;;5.68;;
63112;SDS011;49206;48.020;21.378;2024-03-07T03:13:19;6.85;;;5.25;;
63112;SDS011;49206;48.020;21.378;2024-03-07T03:14:22;7.63;;;5.47;;
63112;SDS011;49206;48.020;21.378;2024-03-07T03:15:25;7.22;;;5.53;;
63112;SDS011;49206;48.020;21.378;2024-03-07T03:16:27;8.52;;;5.57;;
63112;SDS011;49206;48.020;21.378;2024-03-07T03:17:48;7.63;;;5.15;;
63112;SDS011;49206;48.020;21.378;2024-03-07T03:18:51;6.47;;;5.65;;
63112;SDS011;49206;48.020;21.378;2024-03-07T03:19:54;8.60;;;5.47;;
63112;SDS011;49206;48.020;21.378;2024-03-07T03:20:57;7.65;;;5.80;;
63112;SDS011;49206;48.020;21.378;2024-03-07T03:22:00;8.98;;;5.25;;
63112;SDS011;49206;48.020;21.378;2024-03-07T03:23:03;8.50;;;5.75;;
63112;SDS011;49206;48.020;21.378;2024-03-07T03:24:09;10.88;;;5.35;;
63112;SDS011;49206;48.020;21.378;2024-03-07T03:25:12;6.30;;;5.38;;
63112;SDS011;49206;48.020;21.378;2024-03-07T03:26:16;7.32;;;5.28;;
63112;SDS011;49206;48.020;21.378;2024-03-07T03:27:20;7.53;;;5.07;;
63112;SDS011;49206;48.020;21.378;2024-03-07T03:28:22;6.82;;;5.90;;
63112;SDS011;49206;48.020;21.378;2024-03-07T03:29:25;7.72;;;5.53;;
63112;SDS011;49206;48.020;21.378;2024-03-07T03:30:30;6.95;;;5.13;;
63112;SDS011;49206;48.020;21.378;2024-03-07T03:31:35;7.03;;;5.55;;
63112;SDS011;49206;48.020;21.378;2024-03-07T03:32:37;6.50;;;4.95;;
63112;SDS011;49206;48.020;21.378;2024-03-07T03:33:40;6.90;;;5.38;;
63112;SDS011;49206;48.020;21.378;2024-03-07T03:34:44;9.00;;;5.80;;
63112;SDS011;49206;48.020;21.378;2024-03-07T03:35:46;6.57;;;5.22;;
63112;SDS011;49206;48.020;21.378;2024-03-07T03:36:49;7.13;;;5.10;;
63112;SDS011;49206;48.020;21.378;2024-03-07T03:37:52;8.65;;;5.47;;
63112;SDS011;49206;48.020;21.378;2024-03-07T03:38:55;7.47;;;5.18;;
63112;SDS011;49206;48.020;21.378;2024-03-07T03:39:57;8.38;;;5.88;;
63112;SDS011;49206;48.020;21.378;2024-03-07T03:41:00;6.90;;;5.07;;
63112;SDS011;49206;48.020;21.378;2024-03-07T03:42:03;5.50;;;4.70;;
63112;SDS011;49206;48.020;21.378;2024-03-07T03:43:06;9.15;;;5.72;;
63112;SDS011;49206;48.020;21.378;2024-03-07T03:44:09;7.47;;;5.38;;
63112;SDS011;49206;48.020;21.378;2024-03-07T03:46:17;8.20;;;5.30;;
63112;SDS011;49206;48.020;21.378;2024-03-07T03:47:20;6.90;;;4.93;;
63112;SDS011;49206;48.020;21.378;2024-03-07T03:48:22;7.72;;;5.80;;
63112;SDS011;49206;48.020;21.378;2024-03-07T03:49:25;6.25;;;5.28;;
63112;SDS011;49206;48.020;21.378;2024-03-07T03:50:28;6.93;;;5.90;;
63112;SDS011;49206;48.020;21.378;2024-03-07T03:51:31;6.53;;;5.47;;
63112;SDS011;49206;48.020;21.378;2024-03-07T03:52:34;5.78;;;4.88;;
63112;SDS011;49206;48.020;21.378;2024-03-07T03:53:39;7.55;;;5.82;;
63112;SDS011;49206;48.020;21.378;2024-03-07T03:54:44;10.18;;;5.95;;
63112;SDS011;49206;48.020;21.378;2024-03-07T03:55:46;7.43;;;5.50;;
63112;SDS011;49206;48.020;21.378;2024-03-07T03:56:49;7.13;;;5.82;;
63112;SDS011;49206;48.020;21.378;2024-03-07T03:57:52;7.82;;;5.68;;
63112;SDS011;49206;48.020;21.378;2024-03-07T03:58:56;6.47;;;5.68;;
63112;SDS011;49206;48.020;21.378;2024-03-07T04:00:04;6.00;;;5.43;;
63112;SDS011;49206;48.020;21.378;2024-03-07T04:01:19;8.45;;;5.68;;
63112;SDS011;49206;48.020;21.378;2024-03-07T04:02:22;5.38;;;4.88;;
63112;SDS011;49206;48.020;21.378;2024-03-07T04:03:25;7.75;;;5.53;;
63112;SDS011;49206;48.020;21.378;2024-03-07T04:05:32;8.07;;;5.47;;
63112;SDS011;49206;48.020;21.378;2024-03-07T04:06:34;6.20;;;5.13;;
63112;SDS011;49206;48.020;21.378;2024-03-07T04:07:37;7.32;;;5.90;;
63112;SDS011;49206;48.020;21.378;2024-03-07T04:08:40;8.43;;;5.38;;
63112;SDS011;49206;48.020;21.378;2024-03-07T04:09:44;5.70;;;5.10;;
63112;SDS011;49206;48.020;21.378;2024-03-07T04:10:47;7.45;;;6.15;;
63112;SDS011;49206;48.020;21.378;2024-03-07T04:11:50;8.25;;;5.95;;
63112;SDS011;49206;48.020;21.378;2024-03-07T04:12:53;7.65;;;5.85;;
63112;SDS011;49206;48.020;21.378;2024-03-07T04:13:56;6.95;;;5.95;;
63112;SDS011;49206;48.020;21.378;2024-03-07T04:14:58;8.43;;;6.28;;
63112;SDS011;49206;48.020;21.378;2024-03-07T04:16:01;7.53;;;6.03;;
63112;SDS011;49206;48.020;21.378;2024-03-07T04:17:04;6.63;;;5.30;;
63112;SDS011;49206;48.020;21.378;2024-03-07T04:18:09;7.93;;;5.57;;
63112;SDS011;49206;48.020;21.378;2024-03-07T04:19:13;7.50;;;5.75;;
63112;SDS011;49206;48.020;21.378;2024-03-07T04:20:16;7.20;;;5.53;;
63112;SDS011;49206;48.020;21.378;2024-03-07T04:21:21;7.10;;;5.68;;
63112;SDS011;49206;48.020;21.378;2024-03-07T04:22:24;7.10;;;5.82;;
63112;SDS011;49206;48.020;21.378;2024-03-07T04:23:31;9.38;;;6.28;;
63112;SDS011;49206;48.020;21.378;2024-03-07T04:24:36;9.55;;;6.72;;
63112;SDS011;49206;48.020;21.378;2024-03-07T04:25:40;10.20;;;6.60;;
63112;SDS011;49206;48.020;21.378;2024-03-07T04:26:43;10.43;;;7.43;;
63112;SDS011;49206;48.020;21.378;2024-03-07T04:27:46;7.97;;;6.32;;
63112;SDS011;49206;48.020;21.378;2024-03-07T04:28:48;7.50;;;5.78;;
63112;SDS011;49206;48.020;21.378;2024-03-07T04:29:52;6.82;;;5.85;;
63112;SDS011;49206;48.020;21.378;2024-03-07T04:30:54;7.03;;;5.78;;
63112;SDS011;49206;48.020;21.378;2024-03-07T04:31:59;8.55;;;5.50;;
63112;SDS011;49206;48.020;21.378;2024-03-07T04:33:03;7.40;;;5.93;;
63112;SDS011;49206;48.020;21.378;2024-03-07T04:34:08;7.75;;;5.68;;
63112;SDS011;49206;48.020;21.378;2024-03-07T04:35:11;7.25;;;5.38;;
63112;SDS011;49206;48.020;21.378;2024-03-07T04:36:18;6.72;;;5.63;;
63112;SDS011;49206;48.020;21.378;2024-03-07T04:37:21;6.82;;;5.85;;
63112;SDS011;49206;48.020;21.378;2024-03-07T04:38:24;7.72;;;5.70;;
63112;SDS011;49206;48.020;21.378;2024-03-07T04:39:29;7.72;;;6.05;;
63112;SDS011;49206;48.020;21.378;2024-03-07T04:40:35;8.10;;;5.45;;
63112;SDS011;49206;48.020;21.378;2024-03-07T04:41:38;7.15;;;5.45;;
63112;SDS011;49206;48.020;21.378;2024-03-07T04:42:43;7.72;;;5.50;;
63112;SDS011;49206;48.020;21.378;2024-03-07T04:43:52;7.45;;;5.63;;
63112;SDS011;49206;48.020;21.378;2024-03-07T04:44:56;8.25;;;6.22;;
63112;SDS011;49206;48.020;21.378;2024-03-07T04:45:59;7.18;;;5.60;;
63112;SDS011;49206;48.020;21.378;2024-03-07T04:47:02;7.00;;;5.68;;
63112;SDS011;49206;48.020;21.378;2024-03-07T04:48:05;8.45;;;5.60;;
63112;SDS011;49206;48.020;21.378;2024-03-07T04:49:08;9.43;;;6.72;;
63112;SDS011;49206;48.020;21.378;2024-03-07T04:50:12;7.68;;;6.03;;
63112;SDS011;49206;48.020;21.378;2024-03-07T04:51:15;8.45;;;6.38;;
63112;SDS011;49206;48.020;21.378;2024-03-07T04:52:18;8.13;;;5.72;;
63112;SDS011;49206;48.020;21.378;2024-03-07T04:53:21;9.82;;;6.47;;
63112;SDS011;49206;48.020;21.378;2024-03-07T04:54:24;7.68;;;5.70;;
63112;SDS011;49206;48.020;21.378;2024-03-07T04:55:27;7.50;;;5.57;;
63112;SDS011;49206;48.020;21.378;2024-03-07T04:56:29;8.60;;;5.75;;
63112;SDS011;49206;48.020;21.378;2024-03-07T04:57:32;8.02;;;5.57;;
63112;SDS011;49206;48.020;21.378;2024-03-07T04:58:35;8.35;;;6.00;;
63112;SDS011;49206;48.020;21.378;2024-03-07T04:59:38;8.18;;;6.18;;
63112;SDS011;49206;48.020;21.378;2024-03-07T05:00:41;8.70;;;6.32;;
63112;SDS011;49206;48.020;21.378;2024-03-07T05:01:44;8.10;;;6.15;;
63112;SDS011;49206;48.020;21.378;2024-03-07T05:02:47;11.38;;;6.65;;
63112;SDS011;49206;48.020;21.378;2024-03-07T05:03:52;7.40;;;5.88;;
63112;SDS011;49206;48.020;21.378;2024-03-07T05:04:56;8.73;;;6.45;;
63112;SDS011;49206;48.020;21.378;2024-03-07T05:05:58;7.75;;;6.03;;
63112;SDS011;49206;48.020;21.378;2024-03-07T05:07:02;9.23;;;6.60;;
63112;SDS011;49206;48.020;21.378;2024-03-07T05:08:05;9.05;;;6.63;;
63112;SDS011;49206;48.020;21.378;2024-03-07T05:09:08;9.80;;;6.47;;
63112;SDS011;49206;48.020;21.378;2024-03-07T05:11:16;7.50;;;5.82;;
63112;SDS011;49206;48.020;21.378;2024-03-07T05:12:19;9.68;;;6.38;;
63112;SDS011;49206;48.020;21.378;2024-03-07T05:13:22;8.75;;;6.40;;
63112;SDS011;49206;48.020;21.378;2024-03-07T05:14:25;8.00;;;6.38;;
63112;SDS011;49206;48.020;21.378;2024-03-07T05:15:29;7.95;;;6.28;;
63112;SDS011;49206;48.020;21.378;2024-03-07T05:16:32;9.45;;;6.57;;
63112;SDS011;49206;48.020;21.378;2024-03-07T05:17:35;10.25;;;6.63;;
63112;SDS011;49206;48.020;21.378;2024-03-07T05:18:40;7.60;;;5.90;;
63112;SDS011;49206;48.020;21.378;2024-03-07T05:19:46;10.43;;;6.18;;
63112;SDS011;49206;48.020;21.378;2024-03-07T05:20:51;9.63;;;6.53;;
63112;SDS011;49206;48.020;21.378;2024-03-07T05:21:54;10.55;;;6.57;;
63112;SDS011;49206;48.020;21.378;2024-03-07T05:22:57;8.98;;;6.72;;
63112;SDS011;49206;48.020;21.378;2024-03-07T05:24:01;10.18;;;7.15;;
63112;SDS011;49206;48.020;21.378;2024-03-07T05:26:08;8.55;;;6.13;;
63112;SDS011;49206;48.020;21.378;2024-03-07T05:27:10;10.90;;;7.40;;
63112;SDS011;49206;48.020;21.378;2024-03-07T05:28:14;10.05;;;6.47;;
63112;SDS011;49206;48.020;21.378;2024-03-07T05:29:16;11.18;;;6.80;;
63112;SDS011;49206;48.020;21.378;2024-03-07T05:30:20;10.50;;;7.15;;
63112;SDS011;49206;48.020;21.378;2024-03-07T05:31:24;11.45;;;7.60;;
63112;SDS011;49206;48.020;21.378;2024-03-07T05:32:26;10.75;;;6.97;;
63112;SDS011;49206;48.020;21.378;2024-03-07T05:33:30;10.52;;;7.22;;
63112;SDS011;49206;48.020;21.378;2024-03-07T05:34:32;9.40;;;6.50;;
63112;SDS011;49206;48.020;21.378;2024-03-07T05:35:36;10.18;;;7.25;;
63112;SDS011;49206;48.020;21.378;2024-03-07T05:36:39;9.73;;;6.90;;
63112;SDS011;49206;48.020;21.378;2024-03-07T05:37:46;9.40;;;6.97;;
63112;SDS011;49206;48.020;21.378;2024-03-07T05:38:49;11.13;;;7.20;;
63112;SDS011;49206;48.020;21.378;2024-03-07T05:39:52;10.88;;;7.75;;
63112;SDS011;49206;48.020;21.378;2024-03-07T05:40:55;9.75;;;6.97;;
63112;SDS011;49206;48.020;21.378;2024-03-07T05:41:58;11.25;;;7.53;;
63112;SDS011;49206;48.020;21.378;2024-03-07T05:43:01;11.02;;;7.38;;
63112;SDS011;49206;48.020;21.378;2024-03-07T05:44:04;9.27;;;7.18;;
63112;SDS011;49206;48.020;21.378;2024-03-07T05:45:13;11.30;;;7.60;;
63112;SDS011;49206;48.020;21.378;2024-03-07T05:46:17;11.05;;;7.03;;
63112;SDS011;49206;48.020;21.378;2024-03-07T05:47:20;10.10;;;6.65;;
63112;SDS011;49206;48.020;21.378;2024-03-07T05:49:27;10.43;;;7.10;;
63112;SDS011;49206;48.020;21.378;2024-03-07T05:50:29;10.18;;;6.88;;
63112;SDS011;49206;48.020;21.378;2024-03-07T05:51:33;10.57;;;7.30;;
63112;SDS011;49206;48.020;21.378;2024-03-07T05:52:36;11.10;;;7.95;;
63112;SDS011;49206;48.020;21.378;2024-03-07T05:53:39;12.23;;;8.15;;
63112;SDS011;49206;48.020;21.378;2024-03-07T05:54:44;9.70;;;7.15;;
63112;SDS011;49206;48.020;21.378;2024-03-07T05:55:47;12.57;;;7.90;;
63112;SDS011;49206;48.020;21.378;2024-03-07T05:56:50;12.10;;;7.45;;
63112;SDS011;49206;48.020;21.378;2024-03-07T05:57:53;10.63;;;7.43;;
63112;SDS011;49206;48.020;21.378;2024-03-07T05:58:55;11.43;;;7.40;;
63112;SDS011;49206;48.020;21.378;2024-03-07T05:59:59;12.52;;;8.18;;
63112;SDS011;49206;48.020;21.378;2024-03-07T06:01:02;12.68;;;8.32;;
63112;SDS011;49206;48.020;21.378;2024-03-07T06:02:05;11.30;;;8.02;;
63112;SDS011;49206;48.020;21.378;2024-03-07T06:03:08;13.02;;;7.63;;
63112;SDS011;49206;48.020;21.378;2024-03-07T06:04:11;12.65;;;8.48;;
63112;SDS011;49206;48.020;21.378;2024-03-07T06:05:14;12.85;;;7.68;;
63112;SDS011;49206;48.020;21.378;2024-03-07T06:06:18;12.98;;;8.02;;
63112;SDS011;49206;48.020;21.378;2024-03-07T06:07:23;15.30;;;7.85;;
63112;SDS011;49206;48.020;21.378;2024-03-07T06:08:27;11.95;;;7.78;;
63112;SDS011;49206;48.020;21.378;2024-03-07T06:09:30;11.35;;;7.68;;
63112;SDS011;49206;48.020;21.378;2024-03-07T06:10:32;10.95;;;8.07;;
63112;SDS011;49206;48.020;21.378;2024-03-07T06:11:35;10.98;;;7.85;;
63112;SDS011;49206;48.020;21.378;2024-03-07T06:12:39;12.73;;;8.43;;
63112;SDS011;49206;48.020;21.378;2024-03-07T06:14:06;12.50;;;8.40;;
63112;SDS011;49206;48.020;21.378;2024-03-07T06:15:09;11.20;;;7.75;;
63112;SDS011;49206;48.020;21.378;2024-03-07T06:16:11;14.32;;;8.05;;
63112;SDS011;49206;48.020;21.378;2024-03-07T06:17:16;13.70;;;8.35;;
63112;SDS011;49206;48.020;21.378;2024-03-07T06:18:24;15.00;;;8.05;;
63112;SDS011;49206;48.020;21.378;2024-03-07T06:19:26;10.70;;;8.35;;
63112;SDS011;49206;48.020;21.378;2024-03-07T06:20:29;13.65;;;9.13;;
63112;SDS011;49206;48.020;21.378;2024-03-07T06:21:31;13.77;;;8.98;;
63112;SDS011;49206;48.020;21.378;2024-03-07T06:22:34;14.25;;;8.55;;